sensor_id;sensor_type;location;lat;lon;timestamp;P1;durP1;ratioP1;P2;durP2;ratioP2
74658;SDS011;63186;51.204;6.536;2024-02-04T00:00:11;8.30;;;2.80;;
74658;SDS011;63186;51.204;6.536;2024-02-04T00:02:38;7.15;;;3.13;;
74658;SDS011;63186;51.204;6.536;2024-02-04T00:05:03;6.65;;;2.85;;
74658;SDS011;63186;51.204;6.536;2024-02-04T00:07:29;7.03;;;3.17;;
74658;SDS011;63186;51.204;6.536;2024-02-04T00:09:54;7.83;;;3.50;;
74658;SDS011;63186;51.204;6.536;2024-02-04T00:12:20;7.80;;;3.33;;
74658;SDS011;63186;51.204;6.536;2024-02-04T00:14:46;7.95;;;2.97;;
74658;SDS011;63186;51.204;6.536;2024-02-04T00:17:12;8.43;;;3.67;;
74658;SDS011;63186;51.204;6.536;2024-02-04T00:19:39;9.50;;;3.95;;
74658;SDS011;63186;51.204;6.536;2024-02-04T00:22:04;10.20;;;3.97;;
74658;SDS011;63186;51.204;6.536;2024-02-04T00:24:29;8.83;;;4.23;;
74658;SDS011;63186;51.204;6.536;2024-02-04T00:26:55;9.27;;;4.27;;
74658;SDS011;63186;51.204;6.536;2024-02-04T00:29:20;8.63;;;3.80;;
74658;SDS011;63186;51.204;6.536;2024-02-04T00:31:45;7.37;;;2.83;;
74658;SDS011;63186;51.204;6.536;2024-02-04T00:34:10;8.50;;;3.57;;
74658;SDS011;63186;51.204;6.536;2024-02-04T00:36:36;9.80;;;4.57;;
74658;SDS011;63186;51.204;6.536;2024-02-04T00:39:01;9.13;;;3.93;;
74658;SDS011;63186;51.204;6.536;2024-02-04T00:41:27;8.52;;;3.75;;
74658;SDS011;63186;51.204;6.536;2024-02-04T00:43:52;9.27;;;4.37;;
74658;SDS011;63186;51.204;6.536;2024-02-04T00:46:17;10.43;;;4.25;;
74658;SDS011;63186;51.204;6.536;2024-02-04T00:48:43;9.55;;;4.50;;
74658;SDS011;63186;51.204;6.536;2024-02-04T00:51:08;9.70;;;3.85;;
74658;SDS011;63186;51.204;6.536;2024-02-04T00:53:34;11.35;;;3.88;;
74658;SDS011;63186;51.204;6.536;2024-02-04T00:56:00;9.60;;;4.00;;
74658;SDS011;63186;51.204;6.536;2024-02-04T00:58:29;8.13;;;3.63;;
74658;SDS011;63186;51.204;6.536;2024-02-04T01:00:54;9.10;;;3.67;;
74658;SDS011;63186;51.204;6.536;2024-02-04T01:03:19;9.70;;;3.63;;
74658;SDS011;63186;51.204;6.536;2024-02-04T01:05:44;9.77;;;3.13;;
74658;SDS011;63186;51.204;6.536;2024-02-04T01:08:10;7.95;;;3.70;;
74658;SDS011;63186;51.204;6.536;2024-02-04T01:10:35;8.33;;;3.60;;
74658;SDS011;63186;51.204;6.536;2024-02-04T01:13:00;7.65;;;3.15;;
74658;SDS011;63186;51.204;6.536;2024-02-04T01:15:26;9.03;;;2.40;;
74658;SDS011;63186;51.204;6.536;2024-02-04T01:17:51;6.03;;;2.42;;
74658;SDS011;63186;51.204;6.536;2024-02-04T01:20:17;6.28;;;2.80;;
74658;SDS011;63186;51.204;6.536;2024-02-04T01:22:43;6.05;;;2.38;;
74658;SDS011;63186;51.204;6.536;2024-02-04T01:25:08;6.53;;;2.95;;
74658;SDS011;63186;51.204;6.536;2024-02-04T01:27:33;8.15;;;2.50;;
74658;SDS011;63186;51.204;6.536;2024-02-04T01:29:59;8.50;;;4.30;;
74658;SDS011;63186;51.204;6.536;2024-02-04T01:32:24;7.97;;;3.00;;
74658;SDS011;63186;51.204;6.536;2024-02-04T01:34:49;4.50;;;2.00;;
74658;SDS011;63186;51.204;6.536;2024-02-04T01:37:15;5.82;;;2.55;;
74658;SDS011;63186;51.204;6.536;2024-02-04T01:39:40;7.70;;;2.93;;
74658;SDS011;63186;51.204;6.536;2024-02-04T01:42:05;5.63;;;2.10;;
74658;SDS011;63186;51.204;6.536;2024-02-04T01:44:30;6.13;;;1.83;;
74658;SDS011;63186;51.204;6.536;2024-02-04T01:46:56;7.10;;;2.70;;
74658;SDS011;63186;51.204;6.536;2024-02-04T01:49:22;6.53;;;2.83;;
74658;SDS011;63186;51.204;6.536;2024-02-04T01:51:47;5.68;;;2.45;;
74658;SDS011;63186;51.204;6.536;2024-02-04T01:54:13;7.18;;;2.63;;
74658;SDS011;63186;51.204;6.536;2024-02-04T01:56:39;6.20;;;2.50;;
74658;SDS011;63186;51.204;6.536;2024-02-04T01:59:05;6.18;;;2.60;;
74658;SDS011;63186;51.204;6.536;2024-02-04T02:01:30;6.75;;;2.80;;
74658;SDS011;63186;51.204;6.536;2024-02-04T02:03:56;4.20;;;1.80;;
74658;SDS011;63186;51.204;6.536;2024-02-04T02:06:22;5.55;;;2.42;;
74658;SDS011;63186;51.204;6.536;2024-02-04T02:08:48;6.80;;;2.53;;
74658;SDS011;63186;51.204;6.536;2024-02-04T02:11:19;7.18;;;2.78;;
74658;SDS011;63186;51.204;6.536;2024-02-04T02:13:50;4.97;;;2.22;;
74658;SDS011;63186;51.204;6.536;2024-02-04T02:16:22;3.92;;;1.58;;
74658;SDS011;63186;51.204;6.536;2024-02-04T02:18:53;6.45;;;2.38;;
74658;SDS011;63186;51.204;6.536;2024-02-04T02:24:04;6.65;;;2.53;;
74658;SDS011;63186;51.204;6.536;2024-02-04T02:26:36;6.10;;;1.92;;
74658;SDS011;63186;51.204;6.536;2024-02-04T02:29:03;7.53;;;2.20;;
74658;SDS011;63186;51.204;6.536;2024-02-04T02:31:30;7.30;;;2.47;;
74658;SDS011;63186;51.204;6.536;2024-02-04T02:33:55;6.68;;;2.42;;
74658;SDS011;63186;51.204;6.536;2024-02-04T02:36:21;5.13;;;2.00;;
74658;SDS011;63186;51.204;6.536;2024-02-04T02:38:59;6.20;;;2.88;;
74658;SDS011;63186;51.204;6.536;2024-02-04T02:41:35;5.68;;;2.42;;
74658;SDS011;63186;51.204;6.536;2024-02-04T02:44:04;8.77;;;3.20;;
74658;SDS011;63186;51.204;6.536;2024-02-04T02:46:30;7.05;;;2.38;;
74658;SDS011;63186;51.204;6.536;2024-02-04T02:48:55;3.95;;;1.80;;
74658;SDS011;63186;51.204;6.536;2024-02-04T02:51:22;5.53;;;2.28;;
74658;SDS011;63186;51.204;6.536;2024-02-04T02:53:47;6.80;;;2.43;;
74658;SDS011;63186;51.204;6.536;2024-02-04T02:56:12;6.33;;;2.30;;
74658;SDS011;63186;51.204;6.536;2024-02-04T02:58:37;5.93;;;2.53;;
74658;SDS011;63186;51.204;6.536;2024-02-04T03:01:03;6.38;;;2.53;;
74658;SDS011;63186;51.204;6.536;2024-02-04T03:03:28;6.78;;;2.90;;
74658;SDS011;63186;51.204;6.536;2024-02-04T03:05:53;6.53;;;2.90;;
74658;SDS011;63186;51.204;6.536;2024-02-04T03:08:18;6.87;;;2.73;;
74658;SDS011;63186;51.204;6.536;2024-02-04T03:10:44;6.53;;;2.43;;
74658;SDS011;63186;51.204;6.536;2024-02-04T03:13:09;7.60;;;3.27;;
74658;SDS011;63186;51.204;6.536;2024-02-04T03:15:34;7.93;;;2.60;;
74658;SDS011;63186;51.204;6.536;2024-02-04T03:18:00;4.83;;;2.13;;
74658;SDS011;63186;51.204;6.536;2024-02-04T03:20:25;9.43;;;3.00;;
74658;SDS011;63186;51.204;6.536;2024-02-04T03:22:50;7.17;;;3.10;;
74658;SDS011;63186;51.204;6.536;2024-02-04T03:25:15;7.17;;;2.90;;
74658;SDS011;63186;51.204;6.536;2024-02-04T03:27:41;5.53;;;2.27;;
74658;SDS011;63186;51.204;6.536;2024-02-04T03:30:07;7.60;;;3.40;;
74658;SDS011;63186;51.204;6.536;2024-02-04T03:32:32;8.68;;;3.20;;
74658;SDS011;63186;51.204;6.536;2024-02-04T03:35:01;9.32;;;3.63;;
74658;SDS011;63186;51.204;6.536;2024-02-04T03:37:27;8.85;;;3.55;;
74658;SDS011;63186;51.204;6.536;2024-02-04T03:39:52;8.27;;;3.77;;
74658;SDS011;63186;51.204;6.536;2024-02-04T03:42:18;8.47;;;3.70;;
74658;SDS011;63186;51.204;6.536;2024-02-04T03:44:44;12.80;;;4.97;;
74658;SDS011;63186;51.204;6.536;2024-02-04T03:47:10;9.50;;;4.78;;
74658;SDS011;63186;51.204;6.536;2024-02-04T03:49:35;10.03;;;4.40;;
74658;SDS011;63186;51.204;6.536;2024-02-04T03:52:01;12.43;;;5.47;;
74658;SDS011;63186;51.204;6.536;2024-02-04T03:54:26;11.63;;;5.03;;
74658;SDS011;63186;51.204;6.536;2024-02-04T03:56:51;13.03;;;5.60;;
74658;SDS011;63186;51.204;6.536;2024-02-04T03:59:17;10.60;;;4.93;;
74658;SDS011;63186;51.204;6.536;2024-02-04T04:01:46;10.30;;;4.27;;
74658;SDS011;63186;51.204;6.536;2024-02-04T04:04:13;11.60;;;4.82;;
74658;SDS011;63186;51.204;6.536;2024-02-04T04:06:39;12.75;;;6.05;;
74658;SDS011;63186;51.204;6.536;2024-02-04T04:09:04;9.77;;;4.32;;
74658;SDS011;63186;51.204;6.536;2024-02-04T04:11:30;11.57;;;5.30;;
74658;SDS011;63186;51.204;6.536;2024-02-04T04:13:56;12.30;;;5.45;;
74658;SDS011;63186;51.204;6.536;2024-02-04T04:16:21;15.43;;;6.00;;
74658;SDS011;63186;51.204;6.536;2024-02-04T04:18:47;8.82;;;3.83;;
74658;SDS011;63186;51.204;6.536;2024-02-04T04:21:12;10.68;;;4.85;;
74658;SDS011;63186;51.204;6.536;2024-02-04T04:23:38;12.70;;;5.77;;
74658;SDS011;63186;51.204;6.536;2024-02-04T04:26:03;13.90;;;5.43;;
74658;SDS011;63186;51.204;6.536;2024-02-04T04:28:28;11.95;;;5.70;;
74658;SDS011;63186;51.204;6.536;2024-02-04T04:30:54;11.77;;;5.47;;
74658;SDS011;63186;51.204;6.536;2024-02-04T04:33:20;10.80;;;5.22;;
74658;SDS011;63186;51.204;6.536;2024-02-04T04:35:45;13.23;;;6.10;;
74658;SDS011;63186;51.204;6.536;2024-02-04T04:38:10;11.87;;;6.13;;
74658;SDS011;63186;51.204;6.536;2024-02-04T04:40:35;13.00;;;5.50;;
74658;SDS011;63186;51.204;6.536;2024-02-04T04:43:01;15.67;;;5.83;;
74658;SDS011;63186;51.204;6.536;2024-02-04T04:45:26;13.47;;;6.30;;
74658;SDS011;63186;51.204;6.536;2024-02-04T04:47:51;12.57;;;5.93;;
74658;SDS011;63186;51.204;6.536;2024-02-04T04:50:16;10.13;;;4.53;;
74658;SDS011;63186;51.204;6.536;2024-02-04T04:52:42;13.43;;;5.57;;
74658;SDS011;63186;51.204;6.536;2024-02-04T04:55:07;11.83;;;4.60;;
74658;SDS011;63186;51.204;6.536;2024-02-04T04:57:33;17.17;;;7.13;;
74658;SDS011;63186;51.204;6.536;2024-02-04T04:59:58;16.87;;;6.07;;
74658;SDS011;63186;51.204;6.536;2024-02-04T05:02:31;15.02;;;6.28;;
74658;SDS011;63186;51.204;6.536;2024-02-04T05:04:56;13.57;;;5.63;;
74658;SDS011;63186;51.204;6.536;2024-02-04T05:07:22;18.33;;;5.72;;
74658;SDS011;63186;51.204;6.536;2024-02-04T05:09:47;16.00;;;7.00;;
74658;SDS011;63186;51.204;6.536;2024-02-04T05:12:12;16.55;;;7.13;;
74658;SDS011;63186;51.204;6.536;2024-02-04T05:14:38;13.05;;;6.35;;
74658;SDS011;63186;51.204;6.536;2024-02-04T05:17:04;14.77;;;6.75;;
74658;SDS011;63186;51.204;6.536;2024-02-04T05:19:30;17.40;;;6.40;;
74658;SDS011;63186;51.204;6.536;2024-02-04T05:21:55;14.37;;;5.73;;
74658;SDS011;63186;51.204;6.536;2024-02-04T05:24:20;11.60;;;5.37;;
74658;SDS011;63186;51.204;6.536;2024-02-04T05:26:46;13.68;;;7.28;;
74658;SDS011;63186;51.204;6.536;2024-02-04T05:29:11;12.37;;;5.43;;
74658;SDS011;63186;51.204;6.536;2024-02-04T05:31:42;16.93;;;7.10;;
74658;SDS011;63186;51.204;6.536;2024-02-04T05:34:08;15.75;;;6.78;;
74658;SDS011;63186;51.204;6.536;2024-02-04T05:36:34;14.85;;;5.43;;
74658;SDS011;63186;51.204;6.536;2024-02-04T05:39:09;11.95;;;6.15;;
74658;SDS011;63186;51.204;6.536;2024-02-04T05:41:38;16.77;;;5.88;;
74658;SDS011;63186;51.204;6.536;2024-02-04T05:44:04;13.80;;;5.95;;
74658;SDS011;63186;51.204;6.536;2024-02-04T05:46:30;13.93;;;6.05;;
74658;SDS011;63186;51.204;6.536;2024-02-04T05:48:56;11.93;;;5.88;;
74658;SDS011;63186;51.204;6.536;2024-02-04T05:51:21;16.67;;;6.70;;
74658;SDS011;63186;51.204;6.536;2024-02-04T05:53:47;16.25;;;5.93;;
74658;SDS011;63186;51.204;6.536;2024-02-04T05:56:12;12.23;;;6.30;;
74658;SDS011;63186;51.204;6.536;2024-02-04T05:58:38;16.00;;;5.23;;
74658;SDS011;63186;51.204;6.536;2024-02-04T06:01:04;12.80;;;5.18;;
74658;SDS011;63186;51.204;6.536;2024-02-04T06:03:29;13.37;;;5.50;;
74658;SDS011;63186;51.204;6.536;2024-02-04T06:05:54;14.70;;;5.63;;
74658;SDS011;63186;51.204;6.536;2024-02-04T06:08:19;12.17;;;5.50;;
74658;SDS011;63186;51.204;6.536;2024-02-04T06:10:45;12.50;;;5.40;;
74658;SDS011;63186;51.204;6.536;2024-02-04T06:13:10;14.35;;;6.88;;
74658;SDS011;63186;51.204;6.536;2024-02-04T06:15:35;15.20;;;5.60;;
74658;SDS011;63186;51.204;6.536;2024-02-04T06:18:01;13.88;;;5.35;;
74658;SDS011;63186;51.204;6.536;2024-02-04T06:20:26;11.32;;;5.15;;
74658;SDS011;63186;51.204;6.536;2024-02-04T06:22:52;9.80;;;4.97;;
74658;SDS011;63186;51.204;6.536;2024-02-04T06:25:17;10.52;;;4.22;;
74658;SDS011;63186;51.204;6.536;2024-02-04T06:27:42;11.07;;;4.33;;
74658;SDS011;63186;51.204;6.536;2024-02-04T06:30:08;13.38;;;6.03;;
74658;SDS011;63186;51.204;6.536;2024-02-04T06:32:33;13.30;;;5.30;;
74658;SDS011;63186;51.204;6.536;2024-02-04T06:34:59;9.57;;;3.77;;
74658;SDS011;63186;51.204;6.536;2024-02-04T06:37:24;12.90;;;4.20;;
74658;SDS011;63186;51.204;6.536;2024-02-04T06:39:51;8.75;;;4.13;;
74658;SDS011;63186;51.204;6.536;2024-02-04T06:42:17;12.13;;;6.38;;
74658;SDS011;63186;51.204;6.536;2024-02-04T06:44:43;11.75;;;4.43;;
74658;SDS011;63186;51.204;6.536;2024-02-04T06:47:09;9.77;;;4.43;;
74658;SDS011;63186;51.204;6.536;2024-02-04T06:49:37;8.30;;;3.60;;
74658;SDS011;63186;51.204;6.536;2024-02-04T06:52:02;8.55;;;3.75;;
74658;SDS011;63186;51.204;6.536;2024-02-04T06:54:30;9.65;;;3.60;;
74658;SDS011;63186;51.204;6.536;2024-02-04T06:56:55;6.43;;;2.80;;
74658;SDS011;63186;51.204;6.536;2024-02-04T06:59:21;7.70;;;3.43;;
74658;SDS011;63186;51.204;6.536;2024-02-04T07:01:46;7.93;;;3.00;;
74658;SDS011;63186;51.204;6.536;2024-02-04T07:04:12;8.45;;;2.92;;
74658;SDS011;63186;51.204;6.536;2024-02-04T07:06:37;7.25;;;3.03;;
74658;SDS011;63186;51.204;6.536;2024-02-04T07:09:02;7.53;;;3.10;;
74658;SDS011;63186;51.204;6.536;2024-02-04T07:11:28;7.30;;;2.60;;
74658;SDS011;63186;51.204;6.536;2024-02-04T07:13:53;7.03;;;2.47;;
74658;SDS011;63186;51.204;6.536;2024-02-04T07:16:24;6.70;;;2.45;;
74658;SDS011;63186;51.204;6.536;2024-02-04T07:18:50;8.23;;;2.70;;
74658;SDS011;63186;51.204;6.536;2024-02-04T07:21:15;7.30;;;2.67;;
74658;SDS011;63186;51.204;6.536;2024-02-04T07:23:41;6.63;;;2.23;;
74658;SDS011;63186;51.204;6.536;2024-02-04T07:26:06;5.07;;;2.17;;
74658;SDS011;63186;51.204;6.536;2024-02-04T07:28:32;6.13;;;2.27;;
74658;SDS011;63186;51.204;6.536;2024-02-04T07:30:57;6.50;;;1.73;;
74658;SDS011;63186;51.204;6.536;2024-02-04T07:33:23;6.32;;;2.25;;
74658;SDS011;63186;51.204;6.536;2024-02-04T07:35:48;6.63;;;2.80;;
74658;SDS011;63186;51.204;6.536;2024-02-04T07:38:13;6.63;;;2.37;;
74658;SDS011;63186;51.204;6.536;2024-02-04T07:40:38;5.93;;;2.13;;
74658;SDS011;63186;51.204;6.536;2024-02-04T07:43:04;6.03;;;2.40;;
74658;SDS011;63186;51.204;6.536;2024-02-04T07:45:29;6.90;;;2.25;;
74658;SDS011;63186;51.204;6.536;2024-02-04T07:47:54;5.73;;;2.37;;
74658;SDS011;63186;51.204;6.536;2024-02-04T07:50:19;5.63;;;2.53;;
74658;SDS011;63186;51.204;6.536;2024-02-04T07:52:45;4.40;;;1.93;;
74658;SDS011;63186;51.204;6.536;2024-02-04T07:55:10;6.45;;;2.20;;
74658;SDS011;63186;51.204;6.536;2024-02-04T07:57:35;7.05;;;2.58;;
74658;SDS011;63186;51.204;6.536;2024-02-04T08:00:01;8.70;;;3.57;;
74658;SDS011;63186;51.204;6.536;2024-02-04T08:02:30;8.80;;;2.75;;
74658;SDS011;63186;51.204;6.536;2024-02-04T08:04:55;6.40;;;2.37;;
74658;SDS011;63186;51.204;6.536;2024-02-04T08:07:20;10.07;;;3.07;;
74658;SDS011;63186;51.204;6.536;2024-02-04T08:09:45;7.97;;;2.87;;
74658;SDS011;63186;51.204;6.536;2024-02-04T08:12:11;5.87;;;2.50;;
74658;SDS011;63186;51.204;6.536;2024-02-04T08:14:37;5.82;;;2.50;;
74658;SDS011;63186;51.204;6.536;2024-02-04T08:17:02;7.15;;;2.30;;
74658;SDS011;63186;51.204;6.536;2024-02-04T08:19:27;7.15;;;2.30;;
74658;SDS011;63186;51.204;6.536;2024-02-04T08:21:53;6.53;;;2.07;;
74658;SDS011;63186;51.204;6.536;2024-02-04T08:24:18;5.00;;;2.22;;
74658;SDS011;63186;51.204;6.536;2024-02-04T08:26:44;6.43;;;2.35;;
74658;SDS011;63186;51.204;6.536;2024-02-04T08:29:10;10.00;;;1.92;;
74658;SDS011;63186;51.204;6.536;2024-02-04T08:31:36;8.52;;;2.35;;
74658;SDS011;63186;51.204;6.536;2024-02-04T08:34:01;7.70;;;2.85;;
74658;SDS011;63186;51.204;6.536;2024-02-04T08:36:28;5.72;;;2.08;;
74658;SDS011;63186;51.204;6.536;2024-02-04T08:41:21;7.23;;;2.67;;
74658;SDS011;63186;51.204;6.536;2024-02-04T08:43:46;9.00;;;3.05;;
74658;SDS011;63186;51.204;6.536;2024-02-04T08:46:11;5.97;;;2.53;;
74658;SDS011;63186;51.204;6.536;2024-02-04T08:48:37;5.93;;;2.30;;
74658;SDS011;63186;51.204;6.536;2024-02-04T08:51:02;7.43;;;2.57;;
74658;SDS011;63186;51.204;6.536;2024-02-04T08:53:27;9.13;;;3.08;;
74658;SDS011;63186;51.204;6.536;2024-02-04T08:55:52;7.10;;;2.70;;
74658;SDS011;63186;51.204;6.536;2024-02-04T08:58:18;8.37;;;2.87;;
74658;SDS011;63186;51.204;6.536;2024-02-04T09:00:43;9.27;;;2.47;;
74658;SDS011;63186;51.204;6.536;2024-02-04T09:03:08;8.80;;;3.17;;
74658;SDS011;63186;51.204;6.536;2024-02-04T09:05:34;6.63;;;2.75;;
74658;SDS011;63186;51.204;6.536;2024-02-04T09:07:59;6.57;;;2.30;;
74658;SDS011;63186;51.204;6.536;2024-02-04T09:10:25;6.30;;;2.30;;
74658;SDS011;63186;51.204;6.536;2024-02-04T09:12:50;7.33;;;3.07;;
74658;SDS011;63186;51.204;6.536;2024-02-04T09:15:15;7.77;;;2.70;;
74658;SDS011;63186;51.204;6.536;2024-02-04T09:17:41;7.75;;;2.90;;
74658;SDS011;63186;51.204;6.536;2024-02-04T09:20:06;7.97;;;2.63;;
74658;SDS011;63186;51.204;6.536;2024-02-04T09:22:32;8.93;;;2.53;;
74658;SDS011;63186;51.204;6.536;2024-02-04T09:24:58;9.80;;;2.72;;
74658;SDS011;63186;51.204;6.536;2024-02-04T09:27:23;7.40;;;2.58;;
74658;SDS011;63186;51.204;6.536;2024-02-04T09:29:50;7.25;;;2.50;;
74658;SDS011;63186;51.204;6.536;2024-02-04T09:32:15;8.40;;;2.27;;
74658;SDS011;63186;51.204;6.536;2024-02-04T09:34:40;8.87;;;2.93;;
74658;SDS011;63186;51.204;6.536;2024-02-04T09:37:06;5.27;;;2.33;;
74658;SDS011;63186;51.204;6.536;2024-02-04T09:39:31;6.90;;;2.75;;
74658;SDS011;63186;51.204;6.536;2024-02-04T09:41:57;5.90;;;2.70;;
74658;SDS011;63186;51.204;6.536;2024-02-04T09:44:22;5.80;;;2.35;;
74658;SDS011;63186;51.204;6.536;2024-02-04T09:46:49;6.57;;;3.08;;
74658;SDS011;63186;51.204;6.536;2024-02-04T09:49:14;7.95;;;2.90;;
74658;SDS011;63186;51.204;6.536;2024-02-04T09:51:40;6.60;;;2.40;;
74658;SDS011;63186;51.204;6.536;2024-02-04T09:54:06;5.20;;;2.17;;
74658;SDS011;63186;51.204;6.536;2024-02-04T09:56:34;7.78;;;2.92;;
74658;SDS011;63186;51.204;6.536;2024-02-04T09:59:02;6.38;;;2.92;;
74658;SDS011;63186;51.204;6.536;2024-02-04T10:01:27;5.80;;;2.72;;
74658;SDS011;63186;51.204;6.536;2024-02-04T10:03:53;6.32;;;2.28;;
74658;SDS011;63186;51.204;6.536;2024-02-04T10:06:18;7.50;;;3.08;;
74658;SDS011;63186;51.204;6.536;2024-02-04T10:08:44;7.57;;;3.13;;
74658;SDS011;63186;51.204;6.536;2024-02-04T10:11:11;8.73;;;3.28;;
74658;SDS011;63186;51.204;6.536;2024-02-04T10:13:45;7.43;;;3.10;;
74658;SDS011;63186;51.204;6.536;2024-02-04T10:16:12;8.00;;;2.60;;
74658;SDS011;63186;51.204;6.536;2024-02-04T10:18:41;8.27;;;3.22;;
74658;SDS011;63186;51.204;6.536;2024-02-04T10:21:21;7.43;;;2.78;;
74658;SDS011;63186;51.204;6.536;2024-02-04T10:23:49;6.88;;;2.85;;
74658;SDS011;63186;51.204;6.536;2024-02-04T10:26:15;9.50;;;2.30;;
74658;SDS011;63186;51.204;6.536;2024-02-04T10:28:41;8.25;;;2.97;;
74658;SDS011;63186;51.204;6.536;2024-02-04T10:31:10;7.78;;;2.75;;
74658;SDS011;63186;51.204;6.536;2024-02-04T10:33:36;5.90;;;2.30;;
74658;SDS011;63186;51.204;6.536;2024-02-04T10:36:02;9.95;;;3.72;;
74658;SDS011;63186;51.204;6.536;2024-02-04T10:38:28;8.05;;;3.20;;
74658;SDS011;63186;51.204;6.536;2024-02-04T10:40:54;8.65;;;3.90;;
74658;SDS011;63186;51.204;6.536;2024-02-04T10:43:20;8.38;;;3.05;;
74658;SDS011;63186;51.204;6.536;2024-02-04T10:45:46;8.50;;;2.72;;
74658;SDS011;63186;51.204;6.536;2024-02-04T10:48:12;8.05;;;3.22;;
74658;SDS011;63186;51.204;6.536;2024-02-04T10:50:43;10.75;;;3.70;;
74658;SDS011;63186;51.204;6.536;2024-02-04T10:53:12;10.75;;;4.63;;
74658;SDS011;63186;51.204;6.536;2024-02-04T10:55:41;9.85;;;3.72;;
74658;SDS011;63186;51.204;6.536;2024-02-04T10:58:10;8.82;;;3.47;;
74658;SDS011;63186;51.204;6.536;2024-02-04T11:03:03;10.13;;;3.13;;
74658;SDS011;63186;51.204;6.536;2024-02-04T11:05:30;9.60;;;4.28;;
74658;SDS011;63186;51.204;6.536;2024-02-04T11:07:57;9.88;;;3.78;;
74658;SDS011;63186;51.204;6.536;2024-02-04T11:10:22;9.93;;;3.97;;
74658;SDS011;63186;51.204;6.536;2024-02-04T11:12:49;10.80;;;4.47;;
74658;SDS011;63186;51.204;6.536;2024-02-04T11:15:16;10.95;;;3.83;;
74658;SDS011;63186;51.204;6.536;2024-02-04T11:23:42;10.13;;;4.65;;
74658;SDS011;63186;51.204;6.536;2024-02-04T11:26:31;12.10;;;4.53;;
74658;SDS011;63186;51.204;6.536;2024-02-04T11:28:57;11.73;;;3.97;;
74658;SDS011;63186;51.204;6.536;2024-02-04T11:31:23;9.80;;;3.53;;
74658;SDS011;63186;51.204;6.536;2024-02-04T11:33:50;9.30;;;3.75;;
74658;SDS011;63186;51.204;6.536;2024-02-04T11:36:16;9.27;;;3.55;;
74658;SDS011;63186;51.204;6.536;2024-02-04T11:38:43;9.30;;;3.38;;
74658;SDS011;63186;51.204;6.536;2024-02-04T11:41:08;10.60;;;4.15;;
74658;SDS011;63186;51.204;6.536;2024-02-04T11:43:34;7.47;;;3.40;;
74658;SDS011;63186;51.204;6.536;2024-02-04T11:46:04;9.48;;;4.60;;
74658;SDS011;63186;51.204;6.536;2024-02-04T11:48:30;9.35;;;3.10;;
74658;SDS011;63186;51.204;6.536;2024-02-04T11:50:58;8.65;;;3.38;;
74658;SDS011;63186;51.204;6.536;2024-02-04T11:53:27;6.68;;;3.17;;
74658;SDS011;63186;51.204;6.536;2024-02-04T11:55:57;7.95;;;3.53;;
74658;SDS011;63186;51.204;6.536;2024-02-04T11:58:24;7.97;;;3.38;;
74658;SDS011;63186;51.204;6.536;2024-02-04T12:00:51;8.75;;;3.42;;
74658;SDS011;63186;51.204;6.536;2024-02-04T12:03:27;7.68;;;2.85;;
74658;SDS011;63186;51.204;6.536;2024-02-04T12:05:57;7.95;;;3.53;;
74658;SDS011;63186;51.204;6.536;2024-02-04T12:08:23;10.15;;;3.70;;
74658;SDS011;63186;51.204;6.536;2024-02-04T12:10:49;7.10;;;3.63;;
74658;SDS011;63186;51.204;6.536;2024-02-04T12:13:14;9.10;;;4.07;;
74658;SDS011;63186;51.204;6.536;2024-02-04T12:15:40;9.02;;;4.38;;
74658;SDS011;63186;51.204;6.536;2024-02-04T12:18:06;7.50;;;3.13;;
74658;SDS011;63186;51.204;6.536;2024-02-04T12:20:32;12.20;;;3.80;;
74658;SDS011;63186;51.204;6.536;2024-02-04T12:22:58;9.60;;;4.07;;
74658;SDS011;63186;51.204;6.536;2024-02-04T12:25:23;8.20;;;3.45;;
74658;SDS011;63186;51.204;6.536;2024-02-04T12:27:51;6.03;;;2.53;;
74658;SDS011;63186;51.204;6.536;2024-02-04T12:30:17;5.43;;;2.33;;
74658;SDS011;63186;51.204;6.536;2024-02-04T12:32:42;7.25;;;2.50;;
74658;SDS011;63186;51.204;6.536;2024-02-04T12:35:08;5.97;;;2.60;;
74658;SDS011;63186;51.204;6.536;2024-02-04T12:37:38;5.07;;;2.67;;
74658;SDS011;63186;51.204;6.536;2024-02-04T12:40:20;7.43;;;2.72;;
74658;SDS011;63186;51.204;6.536;2024-02-04T12:42:46;3.65;;;2.03;;
74658;SDS011;63186;51.204;6.536;2024-02-04T12:45:17;6.65;;;2.70;;
74658;SDS011;63186;51.204;6.536;2024-02-04T12:47:43;6.07;;;2.77;;
74658;SDS011;63186;51.204;6.536;2024-02-04T12:50:10;6.70;;;2.57;;
74658;SDS011;63186;51.204;6.536;2024-02-04T12:52:37;6.05;;;2.35;;
74658;SDS011;63186;51.204;6.536;2024-02-04T12:55:04;7.13;;;3.00;;
74658;SDS011;63186;51.204;6.536;2024-02-04T12:57:30;6.15;;;2.53;;
74658;SDS011;63186;51.204;6.536;2024-02-04T13:00:03;5.20;;;2.37;;
74658;SDS011;63186;51.204;6.536;2024-02-04T13:02:31;7.60;;;3.20;;
74658;SDS011;63186;51.204;6.536;2024-02-04T13:04:58;6.40;;;2.55;;
74658;SDS011;63186;51.204;6.536;2024-02-04T13:07:24;8.00;;;3.17;;
74658;SDS011;63186;51.204;6.536;2024-02-04T13:09:57;7.35;;;2.40;;
74658;SDS011;63186;51.204;6.536;2024-02-04T13:12:24;6.75;;;3.10;;
74658;SDS011;63186;51.204;6.536;2024-02-04T13:14:49;8.43;;;3.40;;
74658;SDS011;63186;51.204;6.536;2024-02-04T13:17:15;8.70;;;3.13;;
74658;SDS011;63186;51.204;6.536;2024-02-04T13:19:40;6.70;;;3.03;;
74658;SDS011;63186;51.204;6.536;2024-02-04T13:22:06;8.27;;;3.13;;
74658;SDS011;63186;51.204;6.536;2024-02-04T13:26:59;6.23;;;3.23;;
74658;SDS011;63186;51.204;6.536;2024-02-04T13:29:26;8.23;;;3.05;;
74658;SDS011;63186;51.204;6.536;2024-02-04T13:31:51;7.90;;;2.22;;
74658;SDS011;63186;51.204;6.536;2024-02-04T13:34:17;4.73;;;2.20;;
74658;SDS011;63186;51.204;6.536;2024-02-04T13:36:42;5.20;;;2.50;;
74658;SDS011;63186;51.204;6.536;2024-02-04T13:39:08;6.97;;;4.00;;
74658;SDS011;63186;51.204;6.536;2024-02-04T13:41:34;5.65;;;2.38;;
74658;SDS011;63186;51.204;6.536;2024-02-04T13:44:00;7.25;;;3.13;;
74658;SDS011;63186;51.204;6.536;2024-02-04T13:46:26;7.82;;;3.30;;
74658;SDS011;63186;51.204;6.536;2024-02-04T13:48:51;6.50;;;2.77;;
74658;SDS011;63186;51.204;6.536;2024-02-04T13:51:16;10.27;;;3.07;;
74658;SDS011;63186;51.204;6.536;2024-02-04T13:53:42;5.27;;;2.23;;
74658;SDS011;63186;51.204;6.536;2024-02-04T13:56:07;5.83;;;2.60;;
74658;SDS011;63186;51.204;6.536;2024-02-04T13:58:32;6.03;;;2.40;;
74658;SDS011;63186;51.204;6.536;2024-02-04T14:00:58;6.93;;;2.72;;
74658;SDS011;63186;51.204;6.536;2024-02-04T14:03:24;3.88;;;2.08;;
74658;SDS011;63186;51.204;6.536;2024-02-04T14:05:49;5.63;;;2.60;;
74658;SDS011;63186;51.204;6.536;2024-02-04T14:08:15;8.50;;;2.97;;
74658;SDS011;63186;51.204;6.536;2024-02-04T14:10:40;6.20;;;2.93;;
74658;SDS011;63186;51.204;6.536;2024-02-04T14:13:06;7.88;;;2.55;;
74658;SDS011;63186;51.204;6.536;2024-02-04T14:15:31;5.77;;;1.73;;
74658;SDS011;63186;51.204;6.536;2024-02-04T14:17:57;7.30;;;2.53;;
74658;SDS011;63186;51.204;6.536;2024-02-04T14:20:22;5.80;;;2.17;;
74658;SDS011;63186;51.204;6.536;2024-02-04T14:22:48;5.22;;;2.30;;
74658;SDS011;63186;51.204;6.536;2024-02-04T14:25:14;4.60;;;2.28;;
74658;SDS011;63186;51.204;6.536;2024-02-04T14:27:39;6.38;;;2.47;;
74658;SDS011;63186;51.204;6.536;2024-02-04T14:30:05;5.50;;;2.27;;
74658;SDS011;63186;51.204;6.536;2024-02-04T14:32:31;7.13;;;2.10;;
74658;SDS011;63186;51.204;6.536;2024-02-04T14:34:57;6.80;;;2.17;;
74658;SDS011;63186;51.204;6.536;2024-02-04T14:37:22;3.80;;;1.85;;
74658;SDS011;63186;51.204;6.536;2024-02-04T14:39:48;3.72;;;1.35;;
74658;SDS011;63186;51.204;6.536;2024-02-04T14:42:14;4.47;;;2.10;;
74658;SDS011;63186;51.204;6.536;2024-02-04T14:44:40;6.30;;;2.38;;
74658;SDS011;63186;51.204;6.536;2024-02-04T14:47:05;6.37;;;2.23;;
74658;SDS011;63186;51.204;6.536;2024-02-04T14:49:30;8.68;;;2.47;;
74658;SDS011;63186;51.204;6.536;2024-02-04T14:51:56;4.80;;;2.20;;
74658;SDS011;63186;51.204;6.536;2024-02-04T14:54:21;4.80;;;2.23;;